CheckWX is a tool to help pilots better visualize weather data.  It is not intended as a substitute for an official pre-flight weather briefing.

20:15:11 UTC

CYAZ METAR
Tofino / Long Beach Airport
Tofino, Canada
Current

1 hour ago

CYAZ 231900Z 29015KT 15SM BKN046 11/04 A3022 RMK CU6 SLP236
Observed
Apr-23 @ 19:00 UTC
Wind
  • 290° at 15 KTS
Visibility
15 SM
Flight Rules
VFR
Cloud Levels
  • Broken at 4,600' AGL
Temperature
11°C / 52°F
Dewpoint
C / 39°F
Humidity
62%
Altimeter
30.22" Hg
Pressure
1023.42 hPa
Previous

2 hours ago

CYAZ 231800Z 28015KT 15SM BKN043 10/05 A3021 RMK CU7 SLP232
Observed
Apr-23 @ 18:00 UTC
Wind
  • 280° at 15 KTS
Visibility
15 SM
Flight Rules
VFR
Cloud Levels
  • Broken at 4,300' AGL
Temperature
10°C / 50°F
Dewpoint
C / 41°F
Humidity
71%
Altimeter
30.21" Hg
Pressure
1023.02 hPa
Previous

3 hours ago

CYAZ 231700Z 29008G15KT 15SM BKN040 10/07 A3020 RMK CU7 SLP228
Observed
Apr-23 @ 17:00 UTC
Wind
  • 290° at 8 KTS
  • Gusting to 15 KTS
Visibility
15 SM
Flight Rules
VFR
Cloud Levels
  • Broken at 4,000' AGL
Temperature
10°C / 50°F
Dewpoint
C / 45°F
Humidity
82%
Altimeter
30.2" Hg
Pressure
1022.72 hPa